Time;durP1;ratioP1;P1;durP2;ratioP2;P2;SDS_P1;SDS_P2;PMS_P1;PMS_P2;Temp;Humidity;BMP_temperature;BMP_pressure;BME280_temperature;BME280_humidity;BME280_pressure;Samples;Min_cycle;Max_cycle;Signal;HPM_P1;HPM_P2
2023/05/15 00:01:58;;;;;;;;;;;;;;;10.90;100.00;101560.00;5021569;28;20297;-48
2023/05/15 00:04:23;;;;;;;;;;;;;;;10.86;100.00;101561.59;5019154;28;19929;-48
2023/05/15 00:06:49;;;;;;;;;;;;;;;10.87;100.00;101559.91;5020466;28;19929;-51
2023/05/15 00:09:14;;;;;;;;;;;;;;;10.85;100.00;101554.66;5019903;28;20294;-50
2023/05/15 00:11:39;;;;;;;;;;;;;;;10.84;100.00;101549.47;5017910;27;20388;-52
2023/05/15 00:14:05;;;;;;;;;;;;;;;10.81;100.00;101549.38;5022439;28;20306;-51
2023/05/15 00:16:30;;;;;;;;;;;;;;;10.79;100.00;101548.41;5020595;28;20383;-51
2023/05/15 00:18:55;;;;;;;;;;;;;;;10.75;100.00;101544.88;5022194;28;19929;-47
2023/05/15 00:21:20;;;;;;;;;;;;;;;10.73;100.00;101552.50;5043911;28;20981;-47
2023/05/15 00:23:46;;;;;;;;;;;;;;;10.70;100.00;101549.84;5019566;28;19925;-50
2023/05/15 00:26:14;;;;;;;;;;;;;;;10.68;100.00;101545.47;5022186;28;19925;-47
2023/05/15 00:28:39;;;;;;;;;;;;;;;10.63;100.00;101540.13;5021041;28;19933;-50
2023/05/15 00:31:05;;;;;;;;;;;;;;;10.60;100.00;101542.56;5023216;28;19951;-48
2023/05/15 00:33:30;;;;;;;;;;;;;;;10.55;100.00;101532.91;5033792;28;20290;-48
2023/05/15 00:35:55;;;;;;;;;;;;;;;10.52;100.00;101538.84;5021159;28;19925;-49
2023/05/15 00:38:20;;;;;;;;;;;;;;;10.49;100.00;101546.41;5019994;28;20287;-46
2023/05/15 00:40:46;;;;;;;;;;;;;;;10.44;100.00;101537.66;5023013;28;20010;-48
2023/05/15 00:43:11;;;;;;;;;;;;;;;10.42;100.00;101536.72;5020093;28;19921;-47
2023/05/15 00:45:37;;;;;;;;;;;;;;;10.37;100.00;101531.38;5022587;28;19924;-48
2023/05/15 00:48:04;;;;;;;;;;;;;;;10.35;100.00;101533.03;5019522;28;19961;-50
2023/05/15 00:50:31;;;;;;;;;;;;;;;10.32;100.00;101537.19;5020369;28;19982;-49
2023/05/15 00:52:57;;;;;;;;;;;;;;;10.30;100.00;101531.09;5024106;28;20037;-47
2023/05/15 00:55:24;;;;;;;;;;;;;;;10.26;100.00;101531.81;5026461;27;19928;-47
2023/05/15 00:57:51;;;;;;;;;;;;;;;10.24;100.00;101535.97;5026743;27;19951;-50
2023/05/15 01:00:17;;;;;;;;;;;;;;;10.18;100.00;101526.31;5022730;27;19945;-47
2023/05/15 01:02:42;;;;;;;;;;;;;;;10.16;100.00;101528.81;5029781;27;20303;-49
2023/05/15 01:05:08;;;;;;;;;;;;;;;10.13;100.00;101526.13;5026351;27;20020;-48
2023/05/15 01:07:38;;;;;;;;;;;;;;;10.09;100.00;101519.13;5022835;28;19929;-48
2023/05/15 01:10:05;;;;;;;;;;;;;;;10.07;100.00;101519.84;5025019;27;20515;-46
2023/05/15 01:12:31;;;;;;;;;;;;;;;10.05;100.00;101522.34;5025168;27;20291;-45
2023/05/15 01:14:56;;;;;;;;;;;;;;;10.03;100.00;101523.13;5026141;28;19925;-47
2023/05/15 01:17:21;;;;;;;;;;;;;;;10.01;100.00;101517.03;5023481;28;19925;-48
2023/05/15 01:19:49;;;;;;;;;;;;;;;9.96;100.00;101524.56;5017690;28;19944;-47
2023/05/15 01:22:14;;;;;;;;;;;;;;;9.96;100.00;101526.28;5023448;27;19920;-46
2023/05/15 01:24:58;;;;;;;;;;;;;;;9.92;100.00;101515.84;5021345;27;20277;-46
2023/05/15 01:27:23;;;;;;;;;;;;;;;9.90;100.00;101516.63;5024790;27;19963;-47
2023/05/15 01:29:53;;;;;;;;;;;;;;;9.88;100.00;101511.38;5023658;27;19988;-47
2023/05/15 01:32:19;;;;;;;;;;;;;;;9.86;100.00;101519.88;5021472;27;19966;-48
2023/05/15 01:34:52;;;;;;;;;;;;;;;9.83;100.00;101512.91;5042971;28;19917;-47
2023/05/15 01:37:20;;;;;;;;;;;;;;;9.80;100.00;101515.34;5030672;27;20379;-49
2023/05/15 01:39:48;;;;;;;;;;;;;;;9.78;100.00;101513.53;5021299;28;19917;-46
2023/05/15 01:42:15;;;;;;;;;;;;;;;9.75;100.00;101508.25;5023556;28;20016;-48
2023/05/15 01:44:44;;;;;;;;;;;;;;;9.72;100.00;101510.72;5022362;28;19925;-49
2023/05/15 01:47:12;;;;;;;;;;;;;;;9.68;100.00;101508.00;5021382;28;20367;-47
2023/05/15 01:49:38;;;;;;;;;;;;;;;9.66;100.00;101508.78;5021422;28;20700;-47
2023/05/15 01:52:09;;;;;;;;;;;;;;;9.63;100.00;101506.06;5023067;28;19917;-46
2023/05/15 01:54:35;;;;;;;;;;;;;;;9.59;100.00;101489.66;5026840;27;19921;-46
2023/05/15 01:57:01;;;;;;;;;;;;;;;9.57;100.00;101492.97;5022143;28;19928;-48
2023/05/15 01:59:28;;;;;;;;;;;;;;;9.56;100.00;101501.47;5020634;28;20393;-47
2023/05/15 02:01:54;;;;;;;;;;;;;;;9.55;100.00;101502.31;5023006;28;20328;-46
2023/05/15 02:04:20;;;;;;;;;;;;;;;9.53;100.00;101499.69;5022011;28;19928;-48
2023/05/15 02:06:46;;;;;;;;;;;;;;;9.51;100.00;101493.56;5021859;28;19924;-46
2023/05/15 02:09:12;;;;;;;;;;;;;;;9.50;100.00;101486.69;5024442;27;20315;-46
2023/05/15 02:11:37;;;;;;;;;;;;;;;9.49;100.00;101490.06;5021991;27;19921;-47
2023/05/15 02:14:03;;;;;;;;;;;;;;;9.48;100.00;101496.03;5022645;27;19941;-47
2023/05/15 02:16:29;;;;;;;;;;;;;;;9.46;100.00;101492.50;5023936;27;19925;-48
2023/05/15 02:18:55;;;;;;;;;;;;;;;9.46;100.00;101495.06;5022412;27;20075;-47
2023/05/15 02:21:20;;;;;;;;;;;;;;;9.43;100.00;101496.66;5035797;28;20371;-49
2023/05/15 02:23:46;;;;;;;;;;;;;;;9.46;100.00;101491.63;5021300;28;20296;-47
2023/05/15 02:26:11;;;;;;;;;;;;;;;9.44;100.00;101498.41;5027368;27;19972;-46
2023/05/15 02:28:41;;;;;;;;;;;;;;;9.43;100.00;101494.06;5020268;27;19957;-47
2023/05/15 02:31:10;;;;;;;;;;;;;;;9.40;100.00;101503.41;5022207;27;19921;-48
2023/05/15 02:33:57;;;;;;;;;;;;;;;9.39;100.00;101500.75;5022432;27;19931;-47
2023/05/15 02:36:28;;;;;;;;;;;;;;;9.37;100.00;101502.38;5025691;27;19929;-46
2023/05/15 02:38:54;;;;;;;;;;;;;;;9.36;100.00;101508.34;5023677;27;19925;-47
2023/05/15 02:41:20;;;;;;;;;;;;;;;9.34;100.00;101498.03;5021706;27;19967;-47
2023/05/15 02:43:49;;;;;;;;;;;;;;;9.33;100.00;101505.63;5026181;27;20036;-48
2023/05/15 02:46:14;;;;;;;;;;;;;;;9.32;100.00;101509.00;5025601;27;19974;-49
2023/05/15 02:48:40;;;;;;;;;;;;;;;9.30;100.00;101511.50;5024372;28;20305;-50
2023/05/15 02:51:06;;;;;;;;;;;;;;;9.27;100.00;101508.81;5026951;28;20031;-48
2023/05/15 02:53:32;;;;;;;;;;;;;;;9.27;100.00;101505.34;5026409;28;20408;-50
2023/05/15 02:55:57;;;;;;;;;;;;;;;9.25;100.00;101513.00;5028053;28;20401;-47
2023/05/15 02:58:22;;;;;;;;;;;;;;;9.24;100.00;101505.25;5021513;28;19953;-49
2023/05/15 03:00:47;;;;;;;;;;;;;;;9.21;100.00;101508.53;5026099;28;19921;-49
2023/05/15 03:03:13;;;;;;;;;;;;;;;9.19;100.00;101505.03;5027842;28;20011;-47
2023/05/15 03:05:38;;;;;;;;;;;;;;;9.16;100.00;101501.44;5030343;27;19921;-47
2023/05/15 03:08:04;;;;;;;;;;;;;;;9.14;100.00;101503.94;5031487;28;19994;-47
2023/05/15 03:10:29;;;;;;;;;;;;;;;9.11;100.00;101494.44;5022089;27;19932;-45
2023/05/15 03:12:57;;;;;;;;;;;;;;;9.09;100.00;101497.72;5033147;28;19933;-46
2023/05/15 03:15:22;;;;;;;;;;;;;;;9.09;100.00;101498.59;5033110;28;20047;-47
2023/05/15 03:17:47;;;;;;;;;;;;;;;9.05;100.00;101501.00;5028350;27;20015;-48
2023/05/15 03:20:13;;;;;;;;;;;;;;;9.04;100.00;101492.44;5035777;27;19979;-46
2023/05/15 03:22:38;;;;;;;;;;;;;;;9.02;100.00;101488.00;5027232;28;20049;-48
2023/05/15 03:25:04;;;;;;;;;;;;;;;8.98;100.00;101502.41;5031458;27;19921;-46
2023/05/15 03:27:29;;;;;;;;;;;;;;;8.97;100.00;101498.06;5028027;28;19925;-47
2023/05/15 03:29:54;;;;;;;;;;;;;;;8.96;100.00;101498.00;5038787;27;19925;-47
2023/05/15 03:32:20;;;;;;;;;;;;;;;8.93;100.00;101491.06;5036718;27;19956;-46
2023/05/15 03:34:45;;;;;;;;;;;;;;;8.90;100.00;101490.91;5031253;27;19925;-47
2023/05/15 03:37:10;;;;;;;;;;;;;;;8.89;100.00;101491.72;5037484;27;19929;-46
2023/05/15 03:39:35;;;;;;;;;;;;;;;8.88;100.00;101484.84;5030681;27;19929;-46
2023/05/15 03:42:01;;;;;;;;;;;;;;;8.85;100.00;101479.56;5033591;27;20448;-47
2023/05/15 03:44:26;;;;;;;;;;;;;;;8.83;100.00;101476.06;5029499;27;19925;-46
2023/05/15 03:46:52;;;;;;;;;;;;;;;8.79;100.00;101475.03;5041006;27;19936;-46
2023/05/15 03:49:17;;;;;;;;;;;;;;;8.79;100.00;101479.28;5044871;27;20007;-47
2023/05/15 03:51:42;;;;;;;;;;;;;;;8.78;100.00;101477.53;5032718;27;19974;-48
2023/05/15 03:54:07;;;;;;;;;;;;;;;8.76;100.00;101479.16;5031684;27;19962;-46
2023/05/15 03:56:33;;;;;;;;;;;;;;;8.74;100.00;101488.50;5029357;28;19929;-46
2023/05/15 03:58:58;;;;;;;;;;;;;;;8.72;100.00;101480.69;5037009;27;19933;-46
2023/05/15 04:01:23;;;;;;;;;;;;;;;8.70;100.00;101484.91;5035945;27;19921;-49
2023/05/15 04:03:49;;;;;;;;;;;;;;;8.70;100.00;101479.78;5032647;27;19917;-46
2023/05/15 04:06:14;;;;;;;;;;;;;;;8.67;100.00;101476.16;5045337;27;20350;-46
2023/05/15 04:08:40;;;;;;;;;;;;;;;8.66;100.00;101475.28;5028921;27;20287;-46
2023/05/15 04:11:05;;;;;;;;;;;;;;;8.65;100.00;101480.38;5027837;28;19929;-46
2023/05/15 04:13:31;;;;;;;;;;;;;;;8.68;100.00;101483.97;5041387;27;19933;-46
2023/05/15 04:15:56;;;;;;;;;;;;;;;8.68;100.00;101483.97;5026720;28;19928;-45
2023/05/15 04:18:21;;;;;;;;;;;;;;;8.70;100.00;101478.91;5027881;27;19960;-47
2023/05/15 04:20:47;;;;;;;;;;;;;;;8.75;100.00;101473.16;5027779;28;19922;-46
2023/05/15 04:23:12;;;;;;;;;;;;;;;8.79;100.00;101474.16;5035907;28;19920;-47
2023/05/15 04:25:37;;;;;;;;;;;;;;;8.85;100.00;101477.88;5022984;28;20287;-47
2023/05/15 04:28:02;;;;;;;;;;;;;;;8.84;100.00;101476.13;5029072;27;19929;-46
2023/05/15 04:30:28;;;;;;;;;;;;;;;8.86;100.00;101478.78;5024969;28;19927;-46
2023/05/15 04:32:53;;;;;;;;;;;;;;;8.84;100.00;101476.13;5042488;28;19929;-46
2023/05/15 04:35:18;;;;;;;;;;;;;;;8.86;100.00;101491.59;5033964;28;20016;-46
2023/05/15 04:37:46;;;;;;;;;;;;;;;8.89;100.00;101486.59;5035575;28;19922;-46
2023/05/15 04:40:13;;;;;;;;;;;;;;;8.94;100.00;101489.38;5024320;28;20068;-49
2023/05/15 04:42:39;;;;;;;;;;;;;;;8.98;100.00;101493.81;5032978;28;19952;-45
2023/05/15 04:45:04;;;;;;;;;;;;;;;9.02;100.00;101504.28;5030969;28;19968;-47
2023/05/15 04:47:29;;;;;;;;;;;;;;;9.02;100.00;101508.53;5026399;28;19924;-47
2023/05/15 04:49:55;;;;;;;;;;;;;;;9.09;100.00;101506.31;5025385;28;20004;-47
2023/05/15 04:52:20;;;;;;;;;;;;;;;9.07;100.00;101499.38;5025440;28;19925;-47
2023/05/15 04:54:48;;;;;;;;;;;;;;;9.06;100.00;101513.88;5025837;28;19925;-46
2023/05/15 04:57:13;;;;;;;;;;;;;;;9.12;100.00;101509.03;5025536;28;19925;-48
2023/05/15 04:59:39;;;;;;;;;;;;;;;9.17;100.00;101510.91;5025595;28;19965;-49
2023/05/15 05:02:04;;;;;;;;;;;;;;;9.25;100.00;101507.88;5028302;28;19929;-47
2023/05/15 05:04:29;;;;;;;;;;;;;;;9.38;100.00;101509.28;5032552;28;19924;-47
2023/05/15 05:06:55;;;;;;;;;;;;;;;9.44;100.00;101508.66;5024137;28;19932;-47
2023/05/15 05:09:20;;;;;;;;;;;;;;;9.47;100.00;101508.81;5023150;28;20416;-47
2023/05/15 05:11:46;;;;;;;;;;;;;;;9.50;100.00;101506.34;5024186;28;19925;-47
2023/05/15 05:14:12;;;;;;;;;;;;;;;9.57;100.00;101504.09;5025552;28;19929;-47
2023/05/15 05:16:38;;;;;;;;;;;;;;;9.67;100.00;101508.81;5025656;28;20015;-45
2023/05/15 05:19:03;;;;;;;;;;;;;;;9.71;100.00;101514.97;5032323;28;19998;-48
2023/05/15 05:21:29;;;;;;;;;;;;;;;9.70;100.00;101512.31;5032079;28;20025;-50
2023/05/15 05:23:55;;;;;;;;;;;;;;;9.67;100.00;101513.97;5033012;28;19958;-47
2023/05/15 05:26:20;;;;;;;;;;;;;;;9.72;100.00;101521.00;5026500;28;19922;-50
2023/05/15 05:28:46;;;;;;;;;;;;;;;9.82;100.00;101525.69;5036162;28;19975;-50
2023/05/15 05:31:11;;;;;;;;;;;;;;;9.93;100.00;101521.84;5034222;28;20383;-49
2023/05/15 05:33:36;;;;;;;;;;;;;;;10.01;100.00;101532.44;5046481;28;19932;-50
2023/05/15 05:36:01;;;;;;;;;;;;;;;10.05;100.00;101532.63;5026829;28;19927;-48
2023/05/15 05:38:27;;;;;;;;;;;;;;;10.01;100.00;101535.91;5033625;27;19925;-50
2023/05/15 05:40:52;;;;;;;;;;;;;;;10.05;100.00;101537.78;5033447;27;19926;-51
2023/05/15 05:43:17;;;;;;;;;;;;;;;10.01;100.00;101541.06;5032035;27;19990;-48
2023/05/15 05:45:43;;;;;;;;;;;;;;;10.05;100.00;101540.34;5046517;27;19923;-49
2023/05/15 05:48:08;;;;;;;;;;;;;;;10.01;100.00;101532.44;5037666;27;19917;-48
2023/05/15 05:50:33;;;;;;;;;;;;;;;10.15;100.00;101544.19;5036765;27;19921;-50
2023/05/15 05:52:59;;;;;;;;;;;;;;;10.24;100.00;101541.13;5028746;27;20024;-49
2023/05/15 05:55:24;;;;;;;;;;;;;;;10.33;100.00;101539.81;5055831;27;19967;-49
2023/05/15 05:57:49;;;;;;;;;;;;;;;10.73;100.00;101538.78;5029070;27;20039;-50
2023/05/15 06:00:15;;;;;;;;;;;;;;;11.07;100.00;101535.78;5042208;28;19925;-49
2023/05/15 06:02:40;;;;;;;;;;;;;;;11.27;100.00;101527.06;5026687;27;19925;-51
2023/05/15 06:05:07;;;;;;;;;;;;;;;11.45;100.00;101537.13;5048479;27;19921;-49
2023/05/15 06:07:33;;;;;;;;;;;;;;;11.59;100.00;101529.00;5030423;27;19928;-48
2023/05/15 06:09:58;;;;;;;;;;;;;;;11.79;100.00;101534.03;5054641;27;19929;-46
2023/05/15 06:12:23;;;;;;;;;;;;;;;11.82;100.00;101534.16;5032694;27;20336;-50
2023/05/15 06:14:49;;;;;;;;;;;;;;;11.66;100.00;101542.19;5029018;27;19917;-51
2023/05/15 06:17:14;;;;;;;;;;;;;;;11.49;100.00;101539.00;5041940;27;19927;-46
2023/05/15 06:19:39;;;;;;;;;;;;;;;11.29;100.00;101540.00;5030885;27;20782;-48
2023/05/15 06:22:04;;;;;;;;;;;;;;;11.20;100.00;101542.25;5030113;27;19927;-48
2023/05/15 06:24:30;;;;;;;;;;;;;;;11.15;100.00;101547.22;5052095;27;20350;-47
2023/05/15 06:26:55;;;;;;;;;;;;;;;11.50;100.00;101539.88;5032674;27;20329;-49
2023/05/15 06:29:20;;;;;;;;;;;;;;;11.72;100.00;101537.25;5044259;27;19932;-50
2023/05/15 06:31:46;;;;;;;;;;;;;;;12.04;100.00;101545.19;5042045;27;19917;-46
2023/05/15 06:34:11;;;;;;;;;;;;;;;12.42;100.00;101545.53;5046371;27;19964;-47
2023/05/15 06:36:36;;;;;;;;;;;;;;;12.76;100.00;101540.59;5070346;27;19922;-50
2023/05/15 06:39:01;;;;;;;;;;;;;;;13.18;100.00;101539.22;5030578;28;19973;-48
2023/05/15 06:41:27;;;;;;;;;;;;;;;13.43;96.12;101539.09;5047094;27;19948;-47
2023/05/15 06:43:53;;;;;;;;;;;;;;;13.42;96.80;101537.34;5041169;27;19936;-47
2023/05/15 06:46:19;;;;;;;;;;;;;;;13.58;97.39;101536.91;5026831;28;19921;-52
2023/05/15 06:48:46;;;;;;;;;;;;;;;13.72;96.73;101537.28;5046048;27;20375;-49
2023/05/15 06:51:11;;;;;;;;;;;;;;;13.78;93.41;101534.84;5042825;27;19916;-47
2023/05/15 06:53:36;;;;;;;;;;;;;;;13.80;95.08;101535.75;5043754;27;19932;-47
2023/05/15 06:56:01;;;;;;;;;;;;;;;13.98;91.32;101529.31;5029383;27;19928;-47
2023/05/15 06:58:27;;;;;;;;;;;;;;;14.32;92.99;101530.97;5057197;27;20020;-48
2023/05/15 07:00:52;;;;;;;;;;;;;;;14.34;90.40;101531.91;5025913;28;19936;-49
2023/05/15 07:03:17;;;;;;;;;;;;;;;14.45;83.79;101530.44;5034189;27;19925;-48
2023/05/15 07:05:43;;;;;;;;;;;;;;;14.48;91.06;101525.34;5023530;28;20575;-49
2023/05/15 07:08:08;;;;;;;;;;;;;;;14.69;90.70;101530.16;5038960;28;19921;-47
2023/05/15 07:10:33;;;;;;;;;;;;;;;15.01;89.62;101534.28;5030685;28;20407;-48
2023/05/15 07:12:59;;;;;;;;;;;;;;;15.23;85.60;101532.13;5022728;28;19940;-47
2023/05/15 07:15:24;;;;;;;;;;;;;;;15.24;82.41;101531.28;5024771;28;19979;-49
2023/05/15 07:17:49;;;;;;;;;;;;;;;15.48;84.29;101536.94;5027177;27;19928;-48
2023/05/15 07:20:15;;;;;;;;;;;;;;;15.31;82.42;101527.97;5024272;28;20726;-51
2023/05/15 07:22:40;;;;;;;;;;;;;;;15.32;81.59;101534.88;5025618;28;19925;-47
2023/05/15 07:25:05;;;;;;;;;;;;;;;15.45;84.08;101536.88;5026418;28;19929;-48
2023/05/15 07:27:31;;;;;;;;;;;;;;;15.60;85.08;101533.69;5026959;28;19917;-49
2023/05/15 07:29:56;;;;;;;;;;;;;;;15.68;83.33;101533.88;5027828;27;20439;-48
2023/05/15 07:32:21;;;;;;;;;;;;;;;15.56;81.58;101527.56;5023031;28;19932;-47
2023/05/15 07:34:46;;;;;;;;;;;;;;;15.62;83.01;101524.25;5027214;28;19917;-47
2023/05/15 07:37:12;;;;;;;;;;;;;;;15.80;80.80;101529.75;5026815;28;20303;-55
2023/05/15 07:39:37;;;;;;;;;;;;;;;15.87;79.27;101527.28;5029509;27;19965;-53
2023/05/15 07:42:02;;;;;;;;;;;;;;;15.86;79.70;101523.81;5025436;28;19924;-54
2023/05/15 07:44:28;;;;;;;;;;;;;;;15.87;80.19;101520.38;5025914;28;19928;-53
2023/05/15 07:46:54;;;;;;;;;;;;;;;15.81;77.96;101517.66;5027648;28;20807;-54
2023/05/15 07:49:19;;;;;;;;;;;;;;;15.81;77.89;101526.31;5031466;27;20629;-50
2023/05/15 07:51:44;;;;;;;;;;;;;;;15.69;76.01;101520.03;5027763;27;19921;-56
2023/05/15 07:54:09;;;;;;;;;;;;;;;15.71;75.68;101513.16;5024022;28;20372;-59
2023/05/15 07:56:35;;;;;;;;;;;;;;;15.94;75.19;101521.34;5031751;27;20090;-60
2023/05/15 07:59:00;;;;;;;;;;;;;;;16.16;76.23;101513.06;5025369;28;20020;-59
2023/05/15 08:01:25;;;;;;;;;;;;;;;16.41;72.90;101518.63;5025772;27;20307;-59
2023/05/15 08:03:50;;;;;;;;;;;;;;;16.52;74.63;101507.53;5004582;28;19921;-59
2023/05/15 08:06:16;;;;;;;;;;;;;;;16.51;74.81;101508.38;5025596;28;20379;-48
2023/05/15 08:08:41;;;;;;;;;;;;;;;16.53;75.15;101514.47;5028998;27;19921;-49
2023/05/15 08:11:06;;;;;;;;;;;;;;;16.65;74.31;101507.69;5024254;28;20403;-48
2023/05/15 08:13:31;;;;;;;;;;;;;;;16.80;73.04;101506.19;5022686;28;20337;-50
2023/05/15 08:15:57;;;;;;;;;;;;;;;16.87;73.58;101499.38;5025958;28;19970;-50
2023/05/15 08:18:22;;;;;;;;;;;;;;;17.04;72.32;101503.03;5023871;28;20137;-47
2023/05/15 08:20:48;;;;;;;;;;;;;;;17.35;71.37;101506.84;5026196;28;20402;-49
2023/05/15 08:23:13;;;;;;;;;;;;;;;17.65;72.40;101505.38;5024911;28;20368;-46
2023/05/15 08:25:38;;;;;;;;;;;;;;;17.84;67.61;101504.75;5024274;28;20372;-49
2023/05/15 08:28:04;;;;;;;;;;;;;;;17.80;68.84;101508.19;5024880;28;19927;-47
2023/05/15 08:30:30;;;;;;;;;;;;;;;17.60;69.24;101514.91;5022571;28;19928;-47
2023/05/15 08:32:55;;;;;;;;;;;;;;;17.36;69.73;101511.19;5026113;28;19924;-48
2023/05/15 08:35:20;;;;;;;;;;;;;;;17.03;70.08;101508.22;5017646;28;19925;-50
2023/05/15 08:37:45;;;;;;;;;;;;;;;17.06;70.59;101510.84;5025354;28;19932;-47
2023/05/15 08:40:11;;;;;;;;;;;;;;;17.11;72.27;101511.78;5016989;28;20437;-43
2023/05/15 08:42:41;;;;;;;;;;;;;;;17.05;72.15;101516.91;5018069;28;20493;-44
2023/05/15 08:45:07;;;;;;;;;;;;;;;16.98;71.32;101517.66;5020192;28;19977;-45
2023/05/15 08:47:34;;;;;;;;;;;;;;;16.85;72.67;101514.03;5023793;28;20004;-45
2023/05/15 08:50:03;;;;;;;;;;;;;;;16.84;70.74;101509.72;5026426;28;19978;-45
2023/05/15 08:52:29;;;;;;;;;;;;;;;16.83;71.81;101516.63;5020549;28;19917;-46
2023/05/15 08:54:54;;;;;;;;;;;;;;;16.86;72.78;101508.00;5024711;28;19921;-44
2023/05/15 08:57:20;;;;;;;;;;;;;;;17.04;71.84;101507.34;5024881;28;19946;-44
2023/05/15 08:59:45;;;;;;;;;;;;;;;17.27;71.55;101507.63;5028304;28;19969;-43
2023/05/15 09:02:11;;;;;;;;;;;;;;;17.35;72.48;101501.66;5024494;28;19933;-52
2023/05/15 09:04:36;;;;;;;;;;;;;;;17.41;70.98;101501.72;5025292;28;20050;-53
2023/05/15 09:07:02;;;;;;;;;;;;;;;17.45;71.58;101504.34;5015334;28;20398;-53
2023/05/15 09:09:29;;;;;;;;;;;;;;;17.63;71.70;101513.19;5023329;28;20012;-54
2023/05/15 09:11:55;;;;;;;;;;;;;;;17.83;70.27;101509.91;5023785;28;19925;-52
2023/05/15 09:14:20;;;;;;;;;;;;;;;18.04;68.57;101502.31;5027531;28;19925;-53
2023/05/15 09:16:49;;;;;;;;;;;;;;;18.19;68.50;101499.78;5041107;27;19968;-54
2023/05/15 09:19:14;;;;;;;;;;;;;;;18.36;68.21;101507.72;5028422;28;20446;-55
2023/05/15 09:21:39;;;;;;;;;;;;;;;18.39;67.29;101499.06;5027298;28;20375;-52
2023/05/15 09:24:22;;;;;;;;;;;;;;;18.26;65.11;101500.72;5028741;28;20035;-54
2023/05/15 09:27:08;;;;;;;;;;;;;;;18.17;63.08;101506.72;5025741;28;19917;-53
2023/05/15 09:29:34;;;;;;;;;;;;;;;17.85;63.36;101511.69;5026131;28;19924;-53
2023/05/15 09:32:06;;;;;;;;;;;;;;;17.62;64.29;101507.97;5026812;28;19921;-54
2023/05/15 09:34:33;;;;;;;;;;;;;;;17.43;64.30;101510.41;5032324;27;19925;-52
2023/05/15 09:36:59;;;;;;;;;;;;;;;17.14;66.16;101509.22;5028354;28;19924;-50
2023/05/15 09:39:25;;;;;;;;;;;;;;;17.00;67.43;101503.84;5025726;28;19959;-49
2023/05/15 09:41:51;;;;;;;;;;;;;;;16.93;68.60;101503.75;5024568;28;19961;-49
2023/05/15 09:44:26;;;;;;;;;;;;;;;16.79;68.88;101512.25;5027684;28;20019;-51
2023/05/15 09:46:51;;;;;;;;;;;;;;;16.71;69.57;101510.41;5113224;27;19927;-50
2023/05/15 09:49:19;;;;;;;;;;;;;;;16.60;69.40;101510.22;5025844;28;19926;-50
2023/05/15 09:51:47;;;;;;;;;;;;;;;16.44;70.61;101511.75;5046972;28;19925;-52
2023/05/15 09:54:16;;;;;;;;;;;;;;;16.46;70.19;101515.25;5017447;28;19929;-51
2023/05/15 09:56:45;;;;;;;;;;;;;;;16.43;70.67;101516.91;5028381;28;19952;-51
2023/05/15 09:59:15;;;;;;;;;;;;;;;16.37;71.39;101517.69;5037400;28;19917;-49
2023/05/15 10:01:47;;;;;;;;;;;;;;;16.35;71.86;101519.41;5027926;28;19955;-49
2023/05/15 10:04:12;;;;;;;;;;;;;;;16.43;71.92;101522.97;5025420;28;20359;-48
2023/05/15 10:06:39;;;;;;;;;;;;;;;16.52;73.01;101527.44;5026647;28;19953;-48
2023/05/15 10:09:05;;;;;;;;;;;;;;;16.56;72.46;101526.59;5032395;27;20326;-51
2023/05/15 10:11:33;;;;;;;;;;;;;;;16.56;72.57;101524.91;5027109;28;19925;-49
2023/05/15 10:13:58;;;;;;;;;;;;;;;16.56;72.34;101530.09;5018295;28;19928;-52
2023/05/15 10:16:24;;;;;;;;;;;;;;;16.54;72.77;101531.78;5027446;28;19918;-51
2023/05/15 10:18:50;;;;;;;;;;;;;;;16.40;73.57;101529.84;5027818;28;19925;-52
2023/05/15 10:21:17;;;;;;;;;;;;;;;16.41;74.11;101527.28;5027568;27;19941;-50
2023/05/15 10:23:42;;;;;;;;;;;;;;;16.46;73.26;101530.81;5023293;28;20399;-47
2023/05/15 10:26:13;;;;;;;;;;;;;;;16.43;73.40;101537.66;5024936;27;19952;-48
2023/05/15 10:28:38;;;;;;;;;;;;;;;16.26;73.56;101530.53;5026397;28;20386;-50
2023/05/15 10:31:04;;;;;;;;;;;;;;;16.09;74.78;101539.75;5025617;28;19913;-50
2023/05/15 10:33:30;;;;;;;;;;;;;;;16.05;75.36;101540.53;5026399;28;19926;-48
2023/05/15 10:35:57;;;;;;;;;;;;;;;16.05;75.55;101538.81;5045687;27;20005;-49
2023/05/15 10:38:22;;;;;;;;;;;;;;;15.93;74.90;101538.63;5020968;27;20386;-49
2023/05/15 10:40:48;;;;;;;;;;;;;;;15.78;75.76;101538.38;5024487;27;19925;-49
2023/05/15 10:43:13;;;;;;;;;;;;;;;15.68;76.08;101529.53;5023181;28;20612;-51
2023/05/15 10:45:39;;;;;;;;;;;;;;;15.66;76.88;101533.84;5020761;28;19917;-50
2023/05/15 10:48:06;;;;;;;;;;;;;;;15.70;77.61;101526.97;5025299;28;20546;-48
2023/05/15 10:50:31;;;;;;;;;;;;;;;15.78;76.58;101525.41;5020926;28;19921;-51
2023/05/15 10:52:57;;;;;;;;;;;;;;;15.71;77.14;101523.53;5022278;28;19981;-48
2023/05/15 10:55:22;;;;;;;;;;;;;;;15.61;77.89;101522.47;5022569;28;19940;-49
2023/05/15 10:57:48;;;;;;;;;;;;;;;15.54;78.65;101529.28;5037334;27;19917;-51
2023/05/15 11:00:22;;;;;;;;;;;;;;;15.42;79.06;101520.41;5024576;28;20019;-48
2023/05/15 11:02:48;;;;;;;;;;;;;;;15.26;79.85;101527.88;5032735;27;19925;-52
2023/05/15 11:05:13;;;;;;;;;;;;;;;15.20;80.21;101527.75;5025815;28;19936;-51
2023/05/15 11:07:39;;;;;;;;;;;;;;;15.06;80.92;101534.38;5031184;27;19917;-51
2023/05/15 11:10:23;;;;;;;;;;;;;;;14.94;81.54;101529.81;5035869;28;19924;-51
2023/05/15 11:12:55;;;;;;;;;;;;;;;14.89;81.45;101528.84;5034923;27;19977;-51
2023/05/15 11:15:21;;;;;;;;;;;;;;;14.79;82.27;101532.06;5025494;28;20403;-49
2023/05/15 11:18:00;;;;;;;;;;;;;;;14.78;83.56;101522.56;5025320;27;20065;-52
2023/05/15 11:20:52;;;;;;;;;;;;;;;14.78;83.36;101530.34;5027269;27;20019;-50
2023/05/15 11:23:21;;;;;;;;;;;;;;;14.70;83.36;101527.59;5034896;28;19917;-50
2023/05/15 11:25:51;;;;;;;;;;;;;;;14.71;82.89;101525.88;5029310;28;19977;-51
2023/05/15 11:28:20;;;;;;;;;;;;;;;14.63;83.59;101524.84;5027717;28;19921;-51
2023/05/15 11:30:49;;;;;;;;;;;;;;;14.51;85.12;101525.44;5027230;28;19936;-50
2023/05/15 11:33:15;;;;;;;;;;;;;;;14.44;86.60;101526.09;5027710;28;19921;-51
2023/05/15 11:35:42;;;;;;;;;;;;;;;14.41;86.30;101524.31;5028457;28;20418;-52
2023/05/15 11:38:18;;;;;;;;;;;;;;;14.36;87.51;101527.63;5026063;28;19921;-51
2023/05/15 11:40:51;;;;;;;;;;;;;;;14.32;86.53;101524.13;5025752;28;19917;-52
2023/05/15 11:43:45;;;;;;;;;;;;;;;14.34;87.56;101512.06;5026059;28;19942;-51
2023/05/15 11:46:12;;;;;;;;;;;;;;;14.37;86.78;101526.78;5017767;27;19928;-49
2023/05/15 11:48:46;;;;;;;;;;;;;;;14.34;88.24;101517.25;5016762;27;19928;-49
2023/05/15 11:51:25;;;;;;;;;;;;;;;14.36;86.92;101519.88;5020697;28;19921;-50
2023/05/15 11:53:51;;;;;;;;;;;;;;;14.27;86.75;101520.53;5026365;28;19932;-49
2023/05/15 11:56:24;;;;;;;;;;;;;;;14.22;88.40;101528.19;5027633;28;19924;-53
2023/05/15 11:58:50;;;;;;;;;;;;;;;14.19;88.25;101527.22;5025784;28;19932;-48
2023/05/15 12:01:15;;;;;;;;;;;;;;;14.22;89.05;101522.13;5027428;28;19917;-51
2023/05/15 12:03:41;;;;;;;;;;;;;;;14.21;87.70;101522.97;5026331;28;19919;-49
2023/05/15 12:06:06;;;;;;;;;;;;;;;14.22;89.14;101525.59;5031162;27;20143;-48
2023/05/15 12:08:32;;;;;;;;;;;;;;;14.25;89.04;101526.50;5025622;28;20330;-47
2023/05/15 12:10:59;;;;;;;;;;;;;;;14.22;89.22;101520.44;5025323;28;20072;-48
2023/05/15 12:13:24;;;;;;;;;;;;;;;14.23;89.04;101516.13;5006385;28;19921;-49
2023/05/15 12:15:50;;;;;;;;;;;;;;;14.26;88.99;101518.78;5027158;28;19925;-49
2023/05/15 12:18:15;;;;;;;;;;;;;;;14.26;89.60;101517.91;5025712;28;20397;-46
2023/05/15 12:20:48;;;;;;;;;;;;;;;14.25;89.83;101517.03;5025346;28;20379;-50
2023/05/15 12:23:14;;;;;;;;;;;;;;;14.34;88.70;101521.56;5032355;28;19924;-51
2023/05/15 12:25:41;;;;;;;;;;;;;;;14.30;89.12;101515.41;5027620;28;19917;-48
2023/05/15 12:28:06;;;;;;;;;;;;;;;14.29;89.19;101511.09;5028362;28;19953;-48
2023/05/15 12:30:32;;;;;;;;;;;;;;;14.29;89.10;101513.69;5026058;28;19921;-50
2023/05/15 12:33:05;;;;;;;;;;;;;;;14.40;89.51;101511.34;5027460;28;19932;-48